SVMG/PMV METAR and TAF weather

Enter ICAO airport designator
Station Type Date Time Source
SVMG METAR 2019/08/23 15:00 UTC NOAA

SVMG 231500Z /////KT 9999 FEW010 31/23 Q1014 NOSIG


Station Type Date Time Source
SVMG Decoded METAR 2019/08/23 15:00 UTC NOAA

Station name not available
Aug 23, 2019 - 11:00 AM EDT / 2019.08.23 1500 UTC
Visibility: greater than 7 mile(s):0
Sky conditions: mostly clear
Temperature: 87 F (31 C)
Heat index: 93.9 F (34.4 C):1
Dew Point: 73 F (23 C)
Relative Humidity: 62%
Pressure (altimeter): 29.94 in. Hg (1014 hPa)
ob: SVMG 231500Z /////KT 9999 FEW010 31/23 Q1014 NOSIG
cycle: 15

Station Type Date Time Source
SVMG TAF 2019/08/23 12:03 UTC NOAA

TAF SVMG 231000Z 2312/2412 09010KT 9999 FEW010 TX33/18Z TN23/08Z
BECMG 2316/2319 09014KT 9999 FEW010

Example: see airport list